createdAt,value
2018-09-11T00:00:22.127Z,19.1
2018-09-11T00:01:02.520Z,19.09
2018-09-11T00:01:42.907Z,19.05
2018-09-11T00:02:23.326Z,19.02
2018-09-11T00:03:03.746Z,19.05
2018-09-11T00:03:44.109Z,19.02
2018-09-11T00:04:24.560Z,19.05
2018-09-11T00:05:04.997Z,19.02
2018-09-11T00:05:45.410Z,18.97
2018-09-11T00:06:25.790Z,18.9
2018-09-11T00:07:06.172Z,18.89
2018-09-11T00:07:46.584Z,18.87
2018-09-11T00:08:26.970Z,18.86
2018-09-11T00:09:07.313Z,18.9
2018-09-11T00:09:47.752Z,18.87
2018-09-11T00:10:28.210Z,18.94
2018-09-11T00:11:08.626Z,18.94
2018-09-11T00:11:49.059Z,18.91
2018-09-11T00:12:29.448Z,18.82
2018-09-11T00:13:09.861Z,18.86
2018-09-11T00:13:50.248Z,18.79
2018-09-11T00:14:30.664Z,18.72
2018-09-11T00:15:11.085Z,18.72
2018-09-11T00:15:51.569Z,18.74
2018-09-11T00:16:31.898Z,18.72
2018-09-11T00:17:12.342Z,18.68
2018-09-11T00:17:52.711Z,18.65
2018-09-11T00:18:33.090Z,18.62
2018-09-11T00:19:13.497Z,18.54
2018-09-11T00:19:53.907Z,18.65
2018-09-11T00:20:34.267Z,18.56
2018-09-11T00:21:14.665Z,18.5
2018-09-11T00:21:55.023Z,18.49
2018-09-11T00:22:35.441Z,18.38
2018-09-11T00:23:15.860Z,18.46
2018-09-11T00:23:56.259Z,18.34
2018-09-11T00:24:36.783Z,18.35
2018-09-11T00:25:17.188Z,18.42
2018-09-11T00:25:57.564Z,18.31
2018-09-11T00:26:37.939Z,18.23
2018-09-11T00:27:18.425Z,18.21
2018-09-11T00:27:58.789Z,18.17
2018-09-11T00:28:39.201Z,18.19
2018-09-11T00:29:19.534Z,18.09
2018-09-11T00:29:59.976Z,17.99
2018-09-11T00:30:40.469Z,17.94
2018-09-11T00:31:20.860Z,17.95
2018-09-11T00:32:01.212Z,17.95
2018-09-11T00:32:41.559Z,17.95
2018-09-11T00:33:21.997Z,17.81
2018-09-11T00:34:02.447Z,17.83
2018-09-11T00:34:42.826Z,17.84
2018-09-11T00:35:23.209Z,17.83
2018-09-11T00:36:03.620Z,17.74
2018-09-11T00:36:44.081Z,17.76
2018-09-11T00:37:24.475Z,17.81
2018-09-11T00:38:04.897Z,17.79
2018-09-11T00:38:45.310Z,17.79
2018-09-11T00:39:25.774Z,17.79
2018-09-11T00:40:06.142Z,17.74
2018-09-11T00:40:46.527Z,17.7
2018-09-11T00:41:26.994Z,17.73
2018-09-11T00:42:07.406Z,17.76
2018-09-11T00:42:47.764Z,17.65
2018-09-11T00:43:28.172Z,17.68
2018-09-11T00:44:08.654Z,17.51
2018-09-11T00:44:49.114Z,17.54
2018-09-11T00:45:29.603Z,17.6
2018-09-11T00:46:09.973Z,17.71
2018-09-11T00:46:50.460Z,17.65
2018-09-11T00:47:30.847Z,17.55
2018-09-11T00:48:11.220Z,17.6
2018-09-11T00:48:51.627Z,17.57
2018-09-11T00:49:32.066Z,17.62
2018-09-11T00:50:12.541Z,17.6
2018-09-11T00:50:52.918Z,17.49
2018-09-11T00:51:33.308Z,17.6
2018-09-11T00:52:13.716Z,17.54
2018-09-11T00:52:54.068Z,17.46
2018-09-11T00:53:34.503Z,17.47
2018-09-11T00:54:14.958Z,17.46
2018-09-11T00:54:55.331Z,17.4
2018-09-11T00:55:35.821Z,17.38
2018-09-11T00:56:16.139Z,17.24
2018-09-11T00:56:56.585Z,17.3
2018-09-11T00:57:36.995Z,17.35
2018-09-11T00:58:17.387Z,17.27
2018-09-11T00:58:57.808Z,17.28
2018-09-11T00:59:38.147Z,17.27
2018-09-11T01:00:18.597Z,17.27
2018-09-11T01:00:59.042Z,17.27
2018-09-11T01:01:39.406Z,17.24
2018-09-11T01:02:19.865Z,17.3
2018-09-11T01:03:00.211Z,17.22
2018-09-11T01:03:40.589Z,17.3
2018-09-11T01:04:21.010Z,17.3
2018-09-11T01:05:01.430Z,17.25
2018-09-11T01:05:41.856Z,17.22
2018-09-11T01:06:22.233Z,17.28
2018-09-11T01:07:02.594Z,17.2
2018-09-11T01:07:42.946Z,17.17
2018-09-11T01:08:23.399Z,17.25
2018-09-11T01:09:03.820Z,17.27
2018-09-11T01:09:44.262Z,17.28
2018-09-11T01:10:24.582Z,17.27
2018-09-11T01:11:05.044Z,17.27
2018-09-11T01:11:45.588Z,17.28
2018-09-11T01:12:25.983Z,17.25
2018-09-11T01:13:06.354Z,17.28
2018-09-11T01:13:46.856Z,17.28
2018-09-11T01:14:27.339Z,17.24
2018-09-11T01:15:07.635Z,17.33
2018-09-11T01:15:48.015Z,17.33
2018-09-11T01:16:28.408Z,17.24
2018-09-11T01:17:08.925Z,17.21
2018-09-11T01:17:49.415Z,17.18
2018-09-11T01:18:29.660Z,17.25
2018-09-11T01:19:10.054Z,17.25
2018-09-11T01:19:50.413Z,17.25
2018-09-11T01:20:31.021Z,17.3
2018-09-11T01:21:11.455Z,17.25
2018-09-11T01:21:51.825Z,17.3
2018-09-11T01:22:32.270Z,17.2
2018-09-11T01:23:12.658Z,17.25
2018-09-11T01:23:53.122Z,17.15
2018-09-11T01:24:33.469Z,17.28
2018-09-11T01:25:13.954Z,17.18
2018-09-11T01:25:54.424Z,17.12
2018-09-11T01:26:34.723Z,17.14
2018-09-11T01:27:15.163Z,17.12
2018-09-11T01:27:55.664Z,17.12
2018-09-11T01:28:36.121Z,17.22
2018-09-11T01:29:16.554Z,17.12
2018-09-11T01:29:56.954Z,17.09
2018-09-11T01:30:37.375Z,17.05
2018-09-11T01:31:17.706Z,17.03
2018-09-11T01:31:58.123Z,16.99
2018-09-11T01:32:38.616Z,17.09
2018-09-11T01:33:19.016Z,17.09
2018-09-11T01:33:59.436Z,16.99
2018-09-11T01:34:39.833Z,17.14
2018-09-11T01:35:20.193Z,17.12
2018-09-11T01:36:00.573Z,17.07
2018-09-11T01:36:41.049Z,17.1
2018-09-11T01:37:21.450Z,16.96
2018-09-11T01:38:01.860Z,17
2018-09-11T01:38:42.286Z,17.03
2018-09-11T01:39:22.659Z,17.05
2018-09-11T01:40:03.131Z,17.07
2018-09-11T01:40:43.530Z,17.03
2018-09-11T01:41:23.905Z,16.96
2018-09-11T01:42:04.406Z,17.02
2018-09-11T01:42:44.760Z,17
2018-09-11T01:43:25.168Z,17.02
2018-09-11T01:44:05.556Z,17.03
2018-09-11T01:44:45.924Z,16.95
2018-09-11T01:45:26.305Z,16.95
2018-09-11T01:46:06.737Z,16.98
2018-09-11T01:46:47.081Z,16.98
2018-09-11T01:47:27.581Z,16.98
2018-09-11T01:48:08.021Z,16.9
2018-09-11T01:48:48.384Z,16.92
2018-09-11T01:49:28.750Z,16.88
2018-09-11T01:50:09.233Z,16.81
2018-09-11T01:50:49.645Z,16.81
2018-09-11T01:51:30.035Z,16.63
2018-09-11T01:52:10.537Z,16.55
2018-09-11T01:52:50.950Z,16.59
2018-09-11T01:53:31.339Z,16.59
2018-09-11T01:54:11.652Z,16.63
2018-09-11T01:54:52.039Z,16.67
2018-09-11T01:55:32.486Z,16.57
2018-09-11T01:56:12.900Z,16.6
2018-09-11T01:56:53.400Z,16.55
2018-09-11T01:57:33.753Z,16.59
2018-09-11T01:58:14.108Z,16.59
2018-09-11T01:58:54.486Z,16.5
2018-09-11T01:59:34.990Z,16.5
2018-09-11T02:00:15.316Z,16.45
2018-09-11T02:00:55.727Z,16.37
2018-09-11T02:01:36.232Z,16.33
2018-09-11T02:02:16.491Z,16.36
2018-09-11T02:02:57.059Z,16.3
2018-09-11T02:03:37.371Z,16.32
2018-09-11T02:04:17.826Z,16.23
2018-09-11T02:04:58.152Z,16.14
2018-09-11T02:05:38.687Z,16.26
2018-09-11T02:06:19.151Z,16.25
2018-09-11T02:06:59.465Z,16.23
2018-09-11T02:07:39.889Z,16.17
2018-09-11T02:08:20.416Z,16.07
2018-09-11T02:09:00.764Z,16.23
2018-09-11T02:09:41.289Z,16.16
2018-09-11T02:10:21.837Z,16.18
2018-09-11T02:11:02.247Z,16.18
2018-09-11T02:11:42.641Z,16.17
2018-09-11T02:12:23.085Z,16.14
2018-09-11T02:13:03.589Z,16.13
2018-09-11T02:13:44.054Z,16.14
2018-09-11T02:14:24.496Z,16.1
2018-09-11T02:15:04.857Z,16.06
2018-09-11T02:15:45.340Z,16.04
2018-09-11T02:16:25.670Z,16.03
2018-09-11T02:17:05.997Z,15.96
2018-09-11T02:17:46.471Z,16.01
2018-09-11T02:18:26.907Z,16.03
2018-09-11T02:19:07.289Z,16.06
2018-09-11T02:19:48.007Z,16.06
2018-09-11T02:20:28.447Z,16.06
2018-09-11T02:21:08.789Z,16.08
2018-09-11T02:21:49.171Z,16.06
2018-09-11T02:22:29.558Z,16.08
2018-09-11T02:23:10.148Z,16.03
2018-09-11T02:23:50.544Z,15.95
2018-09-11T02:24:30.948Z,15.92
2018-09-11T02:25:11.400Z,15.95
2018-09-11T02:25:51.737Z,16.01
2018-09-11T02:26:32.158Z,16.08
2018-09-11T02:27:12.486Z,16.08
2018-09-11T02:27:52.901Z,16.06
2018-09-11T02:28:33.365Z,16.06
2018-09-11T02:29:13.788Z,16.06
2018-09-11T02:29:54.157Z,16.06
2018-09-11T02:30:34.730Z,16.08
2018-09-11T02:31:15.193Z,16.1
2018-09-11T02:31:55.510Z,16.08
2018-09-11T02:32:35.980Z,16.08
2018-09-11T02:33:16.290Z,16.06
2018-09-11T02:33:56.774Z,16.04
2018-09-11T02:34:37.284Z,16.14
2018-09-11T02:35:17.538Z,16.13
2018-09-11T02:35:57.924Z,16.14
2018-09-11T02:36:38.342Z,16.14
2018-09-11T02:37:18.715Z,16.13
2018-09-11T02:37:59.161Z,16.14
2018-09-11T02:38:39.596Z,16.08
2018-09-11T02:39:20.097Z,16.13
2018-09-11T02:40:00.459Z,16.06
2018-09-11T02:40:40.934Z,16.06
2018-09-11T02:41:21.255Z,16.08
2018-09-11T02:42:01.808Z,16.1
2018-09-11T02:42:42.260Z,15.99
2018-09-11T02:43:22.656Z,16.08
2018-09-11T02:44:03.044Z,16.03
2018-09-11T02:44:43.585Z,15.91
2018-09-11T02:45:23.974Z,16.03
2018-09-11T02:46:04.338Z,15.89
2018-09-11T02:46:44.780Z,15.89
2018-09-11T02:47:25.112Z,16.07
2018-09-11T02:48:05.622Z,16.04
2018-09-11T02:48:46.034Z,16.06
2018-09-11T02:49:26.424Z,16.17
2018-09-11T02:50:07.028Z,16.17
2018-09-11T02:50:47.528Z,16.22
2018-09-11T02:51:27.926Z,16.23
2018-09-11T02:52:08.403Z,16.25
2018-09-11T02:52:48.816Z,16.26
2018-09-11T02:53:29.269Z,16.25
2018-09-11T02:54:09.711Z,16.3
2018-09-11T02:54:50.117Z,16.32
2018-09-11T02:55:30.614Z,16.27
2018-09-11T02:56:10.875Z,16.27
2018-09-11T02:56:51.350Z,16.26
2018-09-11T02:57:31.714Z,16.22
2018-09-11T02:58:12.410Z,16.23
2018-09-11T02:58:52.620Z,16.3
2018-09-11T02:59:33.099Z,16.23
2018-09-11T03:00:13.399Z,16.14
2018-09-11T03:00:53.816Z,16.23
2018-09-11T03:01:34.365Z,16.25
2018-09-11T03:02:14.680Z,16.22
2018-09-11T03:02:55.145Z,16.18
2018-09-11T03:03:35.577Z,16.22
2018-09-11T03:04:15.977Z,16.22
2018-09-11T03:04:56.327Z,16.13
2018-09-11T03:05:36.732Z,16.07
2018-09-11T03:06:17.097Z,16.07
2018-09-11T03:06:57.555Z,16.08
2018-09-11T03:07:37.911Z,16.14
2018-09-11T03:08:18.362Z,16.11
2018-09-11T03:08:58.812Z,16.17
2018-09-11T03:09:39.984Z,16.26
2018-09-11T03:10:20.894Z,16.29
2018-09-11T03:11:01.482Z,16.26
2018-09-11T03:11:42.107Z,16.27
2018-09-11T03:12:23.458Z,16.3
2018-09-11T03:13:04.007Z,16.25
2018-09-11T03:13:44.488Z,16.26
2018-09-11T03:14:24.875Z,16.3
2018-09-11T03:15:05.276Z,16.26
2018-09-11T03:15:45.678Z,16.25
2018-09-11T03:16:26.142Z,16.23
2018-09-11T03:17:06.809Z,16.25
2018-09-11T03:17:47.362Z,16.3
2018-09-11T03:18:27.696Z,16.26
2018-09-11T03:19:08.216Z,16.3
2018-09-11T03:19:48.630Z,16.29
2018-09-11T03:20:29.140Z,16.32
2018-09-11T03:21:09.440Z,16.3
2018-09-11T03:21:49.969Z,16.33
2018-09-11T03:22:30.393Z,16.36
2018-09-11T03:23:10.984Z,16.3
2018-09-11T03:23:51.462Z,16.33
2018-09-11T03:24:31.837Z,16.29
2018-09-11T03:25:12.240Z,16.27
2018-09-11T03:25:52.664Z,16.3
2018-09-11T03:26:33.136Z,16.34
2018-09-11T03:27:13.462Z,16.33
2018-09-11T03:27:53.868Z,16.27
2018-09-11T03:28:34.215Z,16.36
2018-09-11T03:29:14.703Z,16.41
2018-09-11T03:29:55.009Z,16.36
2018-09-11T03:30:35.480Z,16.34
2018-09-11T03:31:15.879Z,16.33
2018-09-11T03:31:56.340Z,16.27
2018-09-11T03:32:36.659Z,16.27
2018-09-11T03:33:17.346Z,16.25
2018-09-11T03:33:57.810Z,16.18
2018-09-11T03:34:38.162Z,16.23
2018-09-11T03:35:18.704Z,16.18
2018-09-11T03:35:59.098Z,16.17
2018-09-11T03:36:39.534Z,16.23
2018-09-11T03:37:19.871Z,16.14
2018-09-11T03:38:00.227Z,16.1
2018-09-11T03:38:40.688Z,16.04
2018-09-11T03:39:21.068Z,16.04
2018-09-11T03:40:01.559Z,16.08
2018-09-11T03:40:41.944Z,15.98
2018-09-11T03:41:22.206Z,16.01
2018-09-11T03:42:02.690Z,16.01
2018-09-11T03:42:43.062Z,16.06
2018-09-11T03:43:23.491Z,15.96
2018-09-11T03:44:04.009Z,16.03
2018-09-11T03:44:44.395Z,16.06
2018-09-11T03:45:24.890Z,15.95
2018-09-11T03:46:05.360Z,16.07
2018-09-11T03:46:45.606Z,15.93
2018-09-11T03:47:26.049Z,15.93
2018-09-11T03:48:06.417Z,15.92
2018-09-11T03:48:46.867Z,15.92
2018-09-11T03:49:27.204Z,15.98
2018-09-11T03:50:07.591Z,15.96
2018-09-11T03:50:48.078Z,15.96
2018-09-11T03:51:28.360Z,15.98
2018-09-11T03:52:08.758Z,15.91
2018-09-11T03:52:49.149Z,15.92
2018-09-11T03:53:29.613Z,15.93
2018-09-11T03:54:10.049Z,15.85
2018-09-11T03:54:50.407Z,15.85
2018-09-11T03:55:30.910Z,15.86
2018-09-11T03:56:11.232Z,15.84
2018-09-11T03:56:51.648Z,15.86
2018-09-11T03:57:32.084Z,15.86
2018-09-11T03:58:12.706Z,15.84
2018-09-11T03:58:53.062Z,15.78
2018-09-11T03:59:33.451Z,15.81
2018-09-11T04:00:13.932Z,15.78
2018-09-11T04:00:54.400Z,15.68
2018-09-11T04:01:34.745Z,15.68
2018-09-11T04:02:15.123Z,15.67
2018-09-11T04:02:55.467Z,15.59
2018-09-11T04:03:35.922Z,15.58
2018-09-11T04:04:16.584Z,15.66
2018-09-11T04:04:56.943Z,15.64
2018-09-11T04:05:37.417Z,15.59
2018-09-11T04:06:17.793Z,15.53
2018-09-11T04:06:58.272Z,15.59
2018-09-11T04:07:38.555Z,15.59
2018-09-11T04:08:19.337Z,15.55
2018-09-11T04:08:59.806Z,15.51
2018-09-11T04:09:40.168Z,15.51
2018-09-11T04:10:20.528Z,15.55
2018-09-11T04:11:00.970Z,15.62
2018-09-11T04:11:41.403Z,15.62
2018-09-11T04:12:22.038Z,15.66
2018-09-11T04:13:02.473Z,15.56
2018-09-11T04:13:42.942Z,15.62
2018-09-11T04:14:23.301Z,15.66
2018-09-11T04:15:03.754Z,15.66
2018-09-11T04:15:44.180Z,15.64
2018-09-11T04:16:24.601Z,15.59
2018-09-11T04:17:05.097Z,15.6
2018-09-11T04:17:45.517Z,15.6
2018-09-11T04:18:25.895Z,15.58
2018-09-11T04:19:06.312Z,15.62
2018-09-11T04:19:46.681Z,15.52
2018-09-11T04:20:27.068Z,15.58
2018-09-11T04:21:07.456Z,15.51
2018-09-11T04:21:47.937Z,15.64
2018-09-11T04:22:28.333Z,15.58
2018-09-11T04:23:08.671Z,15.64
2018-09-11T04:23:49.096Z,15.58
2018-09-11T04:24:29.546Z,15.59
2018-09-11T04:25:09.885Z,15.62
2018-09-11T04:25:50.464Z,15.62
2018-09-11T04:26:30.659Z,15.56
2018-09-11T04:27:11.185Z,15.6
2018-09-11T05:06:28.659Z,14.24
2018-09-11T05:07:20.761Z,14.24
2018-09-11T05:08:10.490Z,14.24
2018-09-11T05:08:50.663Z,14.3
2018-09-11T05:09:31.169Z,14.3
2018-09-11T05:10:11.512Z,14.21
2018-09-11T05:10:51.972Z,14.2
2018-09-11T05:11:32.264Z,14.2
2018-09-11T05:12:12.668Z,14.24
2018-09-11T05:12:52.991Z,14.26
2018-09-11T05:13:33.378Z,14.2
2018-09-11T05:14:13.805Z,14.3
2018-09-11T05:14:54.223Z,14.3
2018-09-11T05:15:34.592Z,14.35
2018-09-11T05:16:14.981Z,14.39
2018-09-11T05:16:55.395Z,14.44
2018-09-11T05:17:35.816Z,14.54
2018-09-11T05:18:16.212Z,14.49
2018-09-11T05:18:56.636Z,14.59
2018-09-11T05:19:36.999Z,14.64
2018-09-11T05:20:17.328Z,14.64
2018-09-11T05:20:57.754Z,14.82
2018-09-11T05:21:38.240Z,14.86
2018-09-11T05:22:18.617Z,14.94
2018-09-11T05:22:59.040Z,15.01
2018-09-11T05:23:39.414Z,15.01
2018-09-11T05:24:20.111Z,14.98
2018-09-11T05:25:00.423Z,15.01
2018-09-11T05:25:40.941Z,15.07
2018-09-11T05:26:21.319Z,15.12
2018-09-11T05:27:01.684Z,15.23
2018-09-11T05:27:42.163Z,15.25
2018-09-11T05:28:22.608Z,15.18
2018-09-11T05:29:03.027Z,15.28
2018-09-11T05:29:43.436Z,15.34
2018-09-11T05:30:23.877Z,15.38
2018-09-11T05:31:04.308Z,15.35
2018-09-11T05:31:44.657Z,15.37
2018-09-11T05:32:25.075Z,15.37
2018-09-11T05:33:05.437Z,15.41
2018-09-11T05:33:45.844Z,15.44
2018-09-11T05:34:26.277Z,15.4
2018-09-11T05:35:06.703Z,15.41
2018-09-11T05:35:47.009Z,15.49
2018-09-11T05:36:27.707Z,15.53
2018-09-11T05:37:07.902Z,15.52
2018-09-11T05:37:48.462Z,15.51
2018-09-11T05:38:29.018Z,15.52
2018-09-11T05:39:09.732Z,15.53
2018-09-11T05:39:50.188Z,15.51
2018-09-11T05:40:30.627Z,15.59
2018-09-11T05:41:10.964Z,15.62
2018-09-11T05:41:51.632Z,15.6
2018-09-11T05:42:32.112Z,15.68
2018-09-11T05:43:12.751Z,15.81
2018-09-11T05:43:53.093Z,15.81
2018-09-11T05:44:33.490Z,15.85
2018-09-11T05:45:14.121Z,15.81
2018-09-11T05:45:54.710Z,15.92
2018-09-11T05:46:35.530Z,15.95
2018-09-11T05:47:22.010Z,16.03
2018-09-11T05:48:02.913Z,16.08
2018-09-11T05:48:46.488Z,16.26
2018-09-11T05:51:31.882Z,16.44
2018-09-11T05:53:36.462Z,16.44
2018-09-11T05:54:29.216Z,16.42
2018-09-11T05:55:22.988Z,16.44
2018-09-11T05:56:27.609Z,16.47
2018-09-11T05:58:03.413Z,16.37
2018-09-11T05:58:57.958Z,16.45
2018-09-11T05:59:55.319Z,16.32
2018-09-11T06:00:48.386Z,16.47
2018-09-11T06:01:40.622Z,16.47
2018-09-11T06:02:38.143Z,16.5
2018-09-11T06:03:34.326Z,16.59
2018-09-11T06:04:30.009Z,16.55
2018-09-11T06:05:23.765Z,16.6
2018-09-11T06:06:21.918Z,16.52
2018-09-11T06:07:16.191Z,16.59
2018-09-11T06:08:09.285Z,16.59
2018-09-11T06:09:06.446Z,16.59
2018-09-11T06:19:43.914Z,17.14
2018-09-11T06:24:49.980Z,17.38
2018-09-11T06:25:45.265Z,17.43
2018-09-11T06:26:41.639Z,17.53
2018-09-11T06:29:07.232Z,17.81
2018-09-11T06:29:57.740Z,17.83
2018-09-11T06:30:50.175Z,17.98
2018-09-11T06:34:07.369Z,18.46
2018-09-11T06:35:07.709Z,18.74
2018-09-11T06:36:18.237Z,18.96
2018-09-11T06:37:17.003Z,19.2
2018-09-11T06:39:00.494Z,19.71
2018-09-11T06:40:00.409Z,19.86
2018-09-11T06:40:54.318Z,20
2018-09-11T06:41:52.811Z,20.17
2018-09-11T06:42:55.891Z,20.17
2018-09-11T06:43:54.275Z,20.34
2018-09-11T06:44:52.564Z,20.56
2018-09-11T06:47:22.962Z,21.05
2018-09-11T06:48:16.057Z,21.13
2018-09-11T06:49:12.169Z,21.38
2018-09-11T06:50:11.809Z,21.52
2018-09-11T06:51:12.036Z,21.67
2018-09-11T06:52:36.928Z,21.86
2018-09-11T06:53:37.544Z,22.15
2018-09-11T06:54:31.064Z,22.19
2018-09-11T06:55:29.668Z,22.41
2018-09-11T06:56:25.866Z,22.31
2018-09-11T06:57:19.727Z,22.31
2018-09-11T06:58:15.339Z,22.44
2018-09-11T06:59:13.005Z,22.56
2018-09-11T07:00:05.268Z,22.52
2018-09-11T07:01:00.725Z,22.59
2018-09-11T07:02:53.171Z,22.74
2018-09-11T07:03:50.720Z,22.74
2018-09-11T07:04:48.421Z,22.59
2018-09-11T07:05:49.726Z,22.78
2018-09-11T07:06:46.803Z,22.81
2018-09-11T07:07:50.335Z,22.82
2018-09-11T07:09:05.398Z,22.89
2018-09-11T07:10:09.517Z,22.99
2018-09-11T07:15:20.912Z,23.72
2018-09-11T07:16:15.742Z,23.82
2018-09-11T07:17:09.518Z,23.93
2018-09-11T07:18:03.487Z,24.04
2018-09-11T07:19:03.021Z,24.15
2018-09-11T07:20:05.334Z,24.34
2018-09-11T07:21:05.346Z,24.29
2018-09-11T07:22:05.190Z,24.3
2018-09-11T07:23:02.221Z,24.3
2018-09-11T07:23:55.008Z,24.55
2018-09-11T07:24:50.293Z,24.7
2018-09-11T07:25:53.022Z,24.8
2018-09-11T07:27:16.919Z,25.07
2018-09-11T07:33:51.473Z,25.74
2018-09-11T07:34:47.317Z,25.71
2018-09-11T07:35:44.063Z,25.86
2018-09-11T07:36:37.441Z,26.01
2018-09-11T07:37:30.035Z,26.13
2018-09-11T07:38:27.939Z,26.2
2018-09-11T07:39:28.162Z,26.19
2018-09-11T07:40:39.802Z,25.93
2018-09-11T07:41:44.645Z,25.9
2018-09-11T07:42:46.624Z,26
2018-09-11T07:43:49.430Z,26.13
2018-09-11T07:44:55.776Z,26.24
2018-09-11T07:46:05.931Z,26.44
2018-09-11T07:47:17.539Z,26.66
2018-09-11T07:48:27.231Z,27.02
2018-09-11T07:51:59.647Z,27.33
2018-09-11T07:53:38.721Z,27.31
2018-09-11T07:55:45.558Z,27.42
2018-09-11T07:56:49.882Z,27.43
2018-09-11T07:59:04.158Z,27.42
2018-09-11T08:00:00.767Z,27.34
2018-09-11T08:01:20.517Z,27.35
2018-09-11T08:02:34.127Z,27.2
2018-09-11T08:03:18.692Z,27.21
2018-09-11T08:03:59.594Z,27.12
2018-09-11T08:04:39.980Z,27.03
2018-09-11T08:05:21.925Z,26.86
2018-09-11T08:06:02.153Z,26.9
2018-09-11T08:06:42.603Z,26.87
2018-09-11T08:07:23.011Z,26.93
2018-09-11T08:08:04.244Z,26.9
2018-09-11T08:08:44.906Z,26.86
2018-09-11T08:09:25.224Z,26.71
2018-09-11T08:10:05.646Z,26.73
2018-09-11T08:10:46.308Z,26.69
2018-09-11T08:11:26.682Z,26.61
2018-09-11T08:12:07.249Z,26.61
2018-09-11T08:12:47.488Z,26.69
2018-09-11T08:13:28.123Z,26.81
2018-09-11T08:14:08.634Z,26.84
2018-09-11T08:14:49.087Z,26.83
2018-09-11T08:15:29.423Z,26.84
2018-09-11T08:16:13.966Z,27.01
2018-09-11T08:16:54.845Z,27.06
2018-09-11T08:17:34.740Z,27.03
2018-09-11T08:18:15.306Z,27.09
2018-09-11T08:18:55.713Z,27.23
2018-09-11T08:19:36.257Z,27.35
2018-09-11T08:20:17.103Z,27.46
2018-09-11T08:20:57.470Z,27.49
2018-09-11T08:21:37.878Z,27.59
2018-09-11T08:22:18.302Z,27.53
2018-09-11T08:22:59.058Z,27.53
2018-09-11T08:23:39.577Z,27.49
2018-09-11T08:24:19.918Z,27.5
2018-09-11T08:25:01.014Z,27.52
2018-09-11T08:25:42.067Z,27.58
2018-09-11T08:26:22.363Z,27.68
2018-09-11T08:27:03.066Z,27.86
2018-09-11T08:27:44.232Z,27.81
2018-09-11T08:28:24.548Z,27.83
2018-09-11T08:29:05.649Z,27.93
2018-09-11T08:29:46.672Z,28.05
2018-09-11T08:30:27.895Z,28.24
2018-09-11T08:31:07.986Z,28.27
2018-09-11T08:31:49.096Z,28.18
2018-09-11T08:32:30.044Z,27.98
2018-09-11T08:33:10.685Z,28.02
2018-09-11T08:34:06.960Z,28.13
2018-09-11T08:34:47.628Z,28.01
2018-09-11T08:35:33.660Z,28.14
2018-09-11T08:36:14.111Z,28.24
2018-09-11T08:37:06.224Z,28.21
2018-09-11T08:39:14.331Z,28.27
2018-09-11T08:41:25.588Z,28.57
2018-09-11T08:42:30.514Z,28.33
2018-09-11T08:44:50.830Z,28.38
2018-09-11T08:45:32.483Z,28.5
2018-09-11T08:46:13.827Z,28.54
2018-09-11T08:46:54.639Z,28.72
2018-09-11T08:47:35.344Z,28.61
2018-09-11T08:48:15.715Z,28.5
2018-09-11T08:48:59.487Z,28.48
2018-09-11T08:49:39.809Z,28.48
2018-09-11T08:50:20.298Z,28.62
2018-09-11T08:51:01.117Z,28.74
2018-09-11T08:51:41.531Z,28.77
2018-09-11T08:52:22.296Z,28.82
2018-09-11T08:53:02.746Z,28.72
2018-09-11T08:53:43.519Z,28.73
2018-09-11T08:54:26.550Z,28.69
2018-09-11T08:55:07.418Z,28.85
2018-09-11T08:55:47.966Z,28.87
2018-09-11T08:56:29.328Z,29.02
2018-09-11T08:57:10.469Z,28.94
2018-09-11T08:57:52.009Z,28.94
2018-09-11T08:59:30.639Z,28.98
2018-09-11T09:00:12.098Z,28.97
2018-09-11T09:00:54.832Z,29.08
2018-09-11T09:01:36.850Z,29.08
2018-09-11T09:02:17.826Z,28.95
2018-09-11T09:02:58.905Z,28.72
2018-09-11T09:03:38.927Z,28.54
2018-09-11T09:04:20.080Z,28.4
2018-09-11T09:05:00.647Z,28.38
2018-09-11T09:05:41.275Z,28.33
2018-09-11T09:06:21.863Z,28.38
2018-09-11T09:07:02.876Z,28.46
2018-09-11T09:07:43.690Z,28.55
2018-09-11T09:08:24.270Z,28.54
2018-09-11T09:09:04.795Z,28.58
2018-09-11T09:09:46.551Z,28.62
2018-09-11T09:10:27.031Z,28.7
2018-09-11T09:11:08.299Z,28.76
2018-09-11T09:11:50.235Z,28.88
2018-09-11T09:12:30.682Z,28.89
2018-09-11T09:13:11.949Z,28.91
2018-09-11T09:13:52.414Z,28.85
2018-09-11T09:14:33.397Z,28.87
2018-09-11T09:15:13.969Z,28.91
2018-09-11T09:15:56.882Z,28.95
2018-09-11T09:16:37.633Z,28.94
2018-09-11T09:17:20.767Z,29.03
2018-09-11T09:18:02.192Z,28.95
2018-09-11T09:18:44.709Z,29.03
2018-09-11T09:19:26.088Z,29
2018-09-11T09:20:07.081Z,29.05
2018-09-11T09:20:49.005Z,29.08
2018-09-11T09:21:29.905Z,29.03
2018-09-11T09:22:10.521Z,29.02
2018-09-11T09:22:52.687Z,29.27
2018-09-11T09:23:34.381Z,29.23
2018-09-11T09:24:15.731Z,29.35
2018-09-11T09:24:56.993Z,29.41
2018-09-11T09:25:37.501Z,29.42
2018-09-11T09:26:18.701Z,29.62
2018-09-11T09:27:07.575Z,29.69
2018-09-11T09:27:49.491Z,29.66
2018-09-11T09:28:30.551Z,29.63
2018-09-11T09:29:11.296Z,29.58
2018-09-11T09:29:52.705Z,29.48
2018-09-11T09:30:33.592Z,29.42
2018-09-11T09:31:16.224Z,28.98
2018-09-11T09:31:58.341Z,28.87
2018-09-11T09:32:41.069Z,28.95
2018-09-11T09:33:35.000Z,29
2018-09-11T09:34:16.285Z,28.97
2018-09-11T09:34:56.631Z,29.1
2018-09-11T09:35:38.678Z,29.07
2018-09-11T09:36:22.132Z,28.92
2018-09-11T09:37:03.260Z,28.89
2018-09-11T09:37:44.380Z,28.94
2018-09-11T09:38:25.904Z,28.91
2018-09-11T09:39:06.987Z,28.98
2018-09-11T09:39:47.915Z,29.17
2018-09-11T09:40:28.892Z,29.35
2018-09-11T09:41:09.566Z,29.35
2018-09-11T09:41:50.339Z,29.45
2018-09-11T09:42:31.683Z,29.64
2018-09-11T09:43:12.037Z,29.71
2018-09-11T09:43:52.862Z,29.91
2018-09-11T09:44:33.836Z,30.03
2018-09-11T09:45:14.701Z,30.04
2018-09-11T09:45:56.342Z,29.95
2018-09-11T09:46:38.150Z,29.94
2018-09-11T09:47:19.165Z,29.94
2018-09-11T09:47:59.551Z,29.82
2018-09-11T09:48:40.545Z,29.97
2018-09-11T09:49:21.779Z,30.06
2018-09-11T09:50:01.940Z,30.16
2018-09-11T09:50:43.366Z,30.28
2018-09-11T09:51:25.859Z,30.25
2018-09-11T09:52:05.976Z,30.23
2018-09-11T09:52:47.012Z,30.32
2018-09-11T09:53:27.335Z,30.28
2018-09-11T09:54:07.785Z,30.25
2018-09-11T09:54:48.341Z,30.32
2018-09-11T09:55:28.990Z,30.23
2018-09-11T09:56:09.586Z,30.19
2018-09-11T09:56:50.057Z,29.95
2018-09-11T09:57:30.609Z,29.73
2018-09-11T09:58:11.088Z,29.58
2018-09-11T09:58:52.603Z,29.63
2018-09-11T09:59:33.493Z,29.6
2018-09-11T10:00:13.973Z,29.71
2018-09-11T10:00:55.322Z,29.84
2018-09-11T10:01:37.074Z,29.95
2018-09-11T10:02:18.223Z,30.11
2018-09-11T10:02:59.250Z,30.11
2018-09-11T10:03:40.732Z,30.1
2018-09-11T10:04:21.847Z,30
2018-09-11T10:05:03.309Z,29.94
2018-09-11T10:05:47.261Z,29.95
2018-09-11T10:06:30.733Z,29.81
2018-09-11T10:07:30.398Z,29.69
2018-09-11T10:08:14.464Z,29.64
2018-09-11T10:09:07.142Z,29.69
2018-09-11T10:10:24.599Z,29.66
2018-09-11T10:11:24.553Z,29.88
2018-09-11T10:14:55.149Z,30.23
2018-09-11T10:15:48.186Z,30.42
2018-09-11T10:16:41.011Z,30.19
2018-09-11T10:17:34.243Z,30.16
2018-09-11T10:18:30.277Z,30.1
2018-09-11T10:21:43.387Z,30.34
2018-09-11T10:22:23.198Z,30.28
2018-09-11T10:23:04.290Z,30.23
2018-09-11T10:23:45.134Z,30.19
2018-09-11T10:24:25.573Z,30.18
2018-09-11T10:25:06.241Z,30.11
2018-09-11T10:25:46.909Z,30.04
2018-09-11T10:26:27.735Z,30
2018-09-11T10:27:08.301Z,29.95
2018-09-11T10:27:49.119Z,29.94
2018-09-11T10:28:29.492Z,30.06
2018-09-11T11:07:23.061Z,30.82
2018-09-11T11:08:50.107Z,30.82
2018-09-11T11:09:38.567Z,30.9
2018-09-11T11:10:19.156Z,30.83
2018-09-11T11:10:59.678Z,30.96
2018-09-11T11:11:40.431Z,30.82
2018-09-11T11:12:21.069Z,30.83
2018-09-11T11:13:01.758Z,30.83
2018-09-11T11:13:42.452Z,30.76
2018-09-11T11:14:24.693Z,30.78
2018-09-11T11:15:07.864Z,30.94
2018-09-11T11:15:48.803Z,30.81
2018-09-11T11:16:30.067Z,30.73
2018-09-11T11:17:12.511Z,30.66
2018-09-11T11:17:52.820Z,30.59
2018-09-11T11:18:33.810Z,30.61
2018-09-11T11:19:15.567Z,30.63
2018-09-11T11:19:56.688Z,30.61
2018-09-11T11:20:37.816Z,30.59
2018-09-11T11:21:18.791Z,30.6
2018-09-11T11:21:58.968Z,30.6
2018-09-11T11:23:44.532Z,30.68
2018-09-11T11:24:34.432Z,30.81
2018-09-11T11:26:09.598Z,31.16
2018-09-11T11:26:52.947Z,31.23
2018-09-11T11:27:34.099Z,31.3
2018-09-11T11:28:15.842Z,31.27
2018-09-11T11:28:57.813Z,31.25
2018-09-11T11:29:37.660Z,31.23